Time;durP1;ratioP1;P1;durP2;ratioP2;P2;SDS_P1;SDS_P2;PMS_P1;PMS_P2;Temp;Humidity;BMP_temperature;BMP_pressure;BME280_temperature;BME280_humidity;BME280_pressure;Samples;Min_cycle;Max_cycle;Signal;HPM_P1;HPM_P2
2022/03/04 00:01:14;;;;;;;73.40;32.10;;;2.40;99.90;;;;;;5016691;28;20034;-66
2022/03/04 00:03:39;;;;;;;80.28;32.58;;;2.40;99.90;;;;;;5023124;28;20029;-66
2022/03/04 00:06:05;;;;;;;87.55;36.40;;;2.40;99.90;;;;;;5009821;28;20100;-65
2022/03/04 00:08:31;;;;;;;104.15;38.83;;;2.40;99.90;;;;;;5011140;28;20249;-64
2022/03/04 00:10:57;;;;;;;111.90;40.38;;;2.20;99.90;;;;;;5015579;28;20038;-63
2022/03/04 00:13:23;;;;;;;114.57;38.03;;;2.10;99.90;;;;;;5022367;28;20025;-64
2022/03/04 00:15:49;;;;;;;124.85;37.42;;;2.00;99.90;;;;;;5019721;28;20091;-64
2022/03/04 00:18:15;;;;;;;150.73;39.50;;;2.00;99.90;;;;;;5022751;28;20104;-67
2022/03/04 00:20:41;;;;;;;98.38;37.38;;;2.00;99.90;;;;;;5022814;28;20108;-67
2022/03/04 00:23:07;;;;;;;212.13;38.25;;;2.10;99.90;;;;;;5019631;28;20042;-66
2022/03/04 00:25:32;;;;;;;101.88;37.95;;;2.10;99.90;;;;;;5017792;28;20026;-67
2022/03/04 00:27:58;;;;;;;158.98;38.58;;;2.10;99.90;;;;;;5024225;28;20383;-66
2022/03/04 00:30:24;;;;;;;149.15;36.75;;;1.90;99.90;;;;;;5027578;28;20033;-65
2022/03/04 00:32:49;;;;;;;122.60;36.38;;;1.70;99.90;;;;;;5024259;28;20120;-65
2022/03/04 00:35:15;;;;;;;131.40;36.63;;;1.70;99.90;;;;;;5028243;28;20033;-64
2022/03/04 00:37:41;;;;;;;107.80;37.70;;;1.70;99.90;;;;;;5024176;28;20067;-62
2022/03/04 00:40:07;;;;;;;123.22;34.50;;;1.60;99.90;;;;;;5029372;28;20033;-66
2022/03/04 00:42:33;;;;;;;112.50;37.30;;;1.70;99.90;;;;;;5023581;28;20072;-64
2022/03/04 00:44:59;;;;;;;112.13;34.03;;;1.80;99.90;;;;;;5025536;28;20042;-65
2022/03/04 00:47:24;;;;;;;124.38;35.47;;;1.80;99.90;;;;;;5020138;28;20029;-65
2022/03/04 00:49:50;;;;;;;106.90;36.00;;;1.60;99.90;;;;;;5010538;28;20123;-64
2022/03/04 00:52:16;;;;;;;104.22;37.13;;;1.70;99.90;;;;;;5020282;28;20018;-65
2022/03/04 00:54:41;;;;;;;109.53;35.33;;;1.70;99.90;;;;;;5021525;28;20036;-64
2022/03/04 00:57:07;;;;;;;167.65;37.72;;;1.60;99.90;;;;;;5022974;28;20088;-64
2022/03/04 00:59:32;;;;;;;160.52;38.40;;;1.50;99.90;;;;;;5025130;28;20034;-63
2022/03/04 01:01:58;;;;;;;138.35;38.75;;;1.40;99.90;;;;;;5023073;28;20029;-63
2022/03/04 01:04:24;;;;;;;141.55;38.35;;;1.40;99.90;;;;;;5026647;28;20038;-63
2022/03/04 01:06:50;;;;;;;156.27;37.88;;;1.50;99.90;;;;;;5021016;28;20029;-63
2022/03/04 01:09:15;;;;;;;134.77;38.15;;;1.40;99.90;;;;;;5028001;28;20141;-63
2022/03/04 01:11:41;;;;;;;120.72;38.20;;;1.50;99.90;;;;;;5020089;28;20511;-63
2022/03/04 01:14:08;;;;;;;153.15;36.38;;;1.50;99.90;;;;;;5009033;28;20025;-65
2022/03/04 01:16:34;;;;;;;107.18;36.38;;;1.60;99.90;;;;;;5009747;28;20033;-65
2022/03/04 01:19:01;;;;;;;113.95;36.85;;;1.60;99.90;;;;;;5013559;28;20038;-63
2022/03/04 01:21:27;;;;;;;111.75;37.13;;;1.60;99.90;;;;;;5013163;28;20045;-62
2022/03/04 01:23:53;;;;;;;112.63;39.22;;;1.70;99.90;;;;;;5007249;28;20133;-64
2022/03/04 01:26:18;;;;;;;101.80;37.63;;;1.70;99.90;;;;;;5016694;28;20120;-64
2022/03/04 01:28:44;;;;;;;160.75;33.78;;;1.80;99.90;;;;;;5009382;28;20602;-64
2022/03/04 01:31:11;;;;;;;127.90;38.05;;;1.70;99.90;;;;;;5019947;28;20090;-64
2022/03/04 01:33:37;;;;;;;162.13;38.67;;;1.70;99.90;;;;;;5015151;28;20042;-63
2022/03/04 01:36:03;;;;;;;166.98;40.70;;;1.70;99.90;;;;;;5022338;28;20061;-63
2022/03/04 01:38:28;;;;;;;148.90;39.55;;;1.50;99.90;;;;;;5024848;28;20049;-63
2022/03/04 01:40:54;;;;;;;193.65;39.53;;;1.50;99.90;;;;;;5022576;28;20092;-62
2022/03/04 01:43:20;;;;;;;130.50;39.22;;;1.50;99.90;;;;;;5025562;28;20029;-63
2022/03/04 01:45:45;;;;;;;147.15;38.45;;;1.60;99.90;;;;;;5016472;28;20029;-66
2022/03/04 01:48:12;;;;;;;144.57;38.13;;;1.70;99.90;;;;;;5023995;28;20030;-63
2022/03/04 01:50:37;;;;;;;158.25;40.72;;;1.70;99.90;;;;;;5024712;28;20036;-63
2022/03/04 01:53:03;;;;;;;131.73;41.33;;;1.70;99.90;;;;;;5023472;28;20025;-65
2022/03/04 01:55:29;;;;;;;129.85;39.42;;;1.80;99.90;;;;;;5026078;28;20038;-65
2022/03/04 01:57:55;;;;;;;126.85;37.80;;;1.90;99.90;;;;;;5018703;28;20112;-65
2022/03/04 02:00:21;;;;;;;123.45;40.03;;;2.00;99.90;;;;;;5022701;28;20021;-64
2022/03/04 02:02:47;;;;;;;118.40;38.72;;;1.90;99.90;;;;;;5020745;28;20223;-64
2022/03/04 02:05:17;;;;;;;130.60;40.55;;;1.90;99.90;;;;;;5030942;28;20028;-65
2022/03/04 02:07:43;;;;;;;117.30;40.17;;;2.00;99.90;;;;;;5019948;28;20105;-65
2022/03/04 02:10:10;;;;;;;119.63;37.80;;;2.00;99.90;;;;;;5031245;28;20034;-65
2022/03/04 02:12:37;;;;;;;114.97;36.67;;;2.00;99.90;;;;;;5018999;28;20033;-65
2022/03/04 02:15:04;;;;;;;103.10;35.95;;;1.90;99.90;;;;;;5001635;28;20079;-67
2022/03/04 02:17:30;;;;;;;126.50;37.90;;;1.90;99.90;;;;;;5020775;28;20502;-67
2022/03/04 02:19:57;;;;;;;114.22;39.38;;;1.90;99.90;;;;;;5023587;28;20120;-66
2022/03/04 02:22:24;;;;;;;122.50;37.55;;;1.90;99.90;;;;;;5014254;28;20084;-64
2022/03/04 02:24:49;;;;;;;107.03;38.33;;;1.90;99.90;;;;;;5019395;28;20029;-64
2022/03/04 02:27:15;;;;;;;106.30;37.88;;;1.90;99.90;;;;;;5027452;28;20689;-64
2022/03/04 02:29:41;;;;;;;115.70;37.13;;;2.00;99.90;;;;;;5019934;28;20105;-64
2022/03/04 02:32:07;;;;;;;102.88;37.03;;;1.90;99.90;;;;;;5029156;28;20045;-64
2022/03/04 02:34:33;;;;;;;121.25;39.17;;;1.90;99.90;;;;;;5019157;28;20488;-64
2022/03/04 02:36:58;;;;;;;110.40;39.20;;;1.80;99.90;;;;;;5028607;28;20520;-64
2022/03/04 02:39:24;;;;;;;106.50;38.03;;;1.80;99.90;;;;;;5019464;28;20080;-64
2022/03/04 02:41:50;;;;;;;112.68;37.05;;;1.80;99.90;;;;;;5028838;28;20041;-63
2022/03/04 02:44:16;;;;;;;115.38;37.70;;;1.90;99.90;;;;;;5020673;28;20079;-64
2022/03/04 02:46:42;;;;;;;118.97;38.38;;;2.00;99.90;;;;;;5027534;28;20025;-64
2022/03/04 02:49:09;;;;;;;92.60;35.65;;;2.00;99.90;;;;;;5023044;28;20033;-65
2022/03/04 02:51:34;;;;;;;86.80;35.72;;;2.00;99.90;;;;;;5026886;28;20187;-62
2022/03/04 02:54:00;;;;;;;91.03;36.50;;;2.10;99.90;;;;;;5024018;28;20108;-64
2022/03/04 02:56:26;;;;;;;146.07;38.25;;;2.20;99.90;;;;;;5025118;28;20091;-64
2022/03/04 02:58:51;;;;;;;96.15;37.58;;;2.10;99.90;;;;;;5025344;28;20128;-63
2022/03/04 03:01:18;;;;;;;103.68;38.33;;;2.10;99.90;;;;;;5024400;28;20029;-65
2022/03/04 03:03:43;;;;;;;94.10;35.67;;;2.20;99.90;;;;;;5020197;28;20101;-66
2022/03/04 03:06:09;;;;;;;91.78;37.42;;;2.30;99.90;;;;;;5021103;28;20164;-65
2022/03/04 03:08:35;;;;;;;87.40;37.33;;;2.30;99.90;;;;;;5019833;28;20097;-65
2022/03/04 03:11:00;;;;;;;89.88;36.88;;;2.40;99.90;;;;;;5020402;28;20487;-64
2022/03/04 03:13:26;;;;;;;97.85;38.47;;;2.30;99.90;;;;;;5014760;28;20038;-65
2022/03/04 03:15:51;;;;;;;93.60;39.58;;;2.20;99.90;;;;;;5019774;28;20030;-65
2022/03/04 03:18:18;;;;;;;86.20;37.13;;;2.20;99.90;;;;;;5025147;28;20088;-65
2022/03/04 03:20:44;;;;;;;89.30;33.55;;;2.10;99.90;;;;;;5018704;28;20026;-65
2022/03/04 03:23:10;;;;;;;82.75;33.78;;;2.10;99.90;;;;;;5026182;28;20537;-63
2022/03/04 03:25:36;;;;;;;79.97;33.25;;;2.00;99.90;;;;;;5017438;28;20480;-67
2022/03/04 03:28:02;;;;;;;78.85;32.42;;;2.00;99.90;;;;;;5021237;28;20030;-65
2022/03/04 03:30:28;;;;;;;78.35;32.83;;;2.00;99.90;;;;;;5014216;28;20653;-65
2022/03/04 03:32:54;;;;;;;79.78;33.17;;;2.00;99.90;;;;;;5000643;28;20052;-65
2022/03/04 03:35:20;;;;;;;80.57;33.45;;;2.10;99.90;;;;;;5009838;28;20484;-65
2022/03/04 03:37:45;;;;;;;82.40;32.67;;;2.20;99.90;;;;;;5009082;28;20034;-65
2022/03/04 03:40:12;;;;;;;95.63;36.65;;;2.10;99.90;;;;;;5021688;28;20029;-64
2022/03/04 03:42:39;;;;;;;74.18;31.42;;;2.20;99.90;;;;;;5019013;28;20033;-63
2022/03/04 03:45:06;;;;;;;76.85;32.20;;;2.30;99.90;;;;;;5029651;28;20109;-65
2022/03/04 03:47:32;;;;;;;72.40;30.90;;;2.40;99.90;;;;;;5011326;28;20516;-67
2022/03/04 03:49:57;;;;;;;72.85;31.48;;;2.40;99.90;;;;;;5020936;28;20125;-66
2022/03/04 03:52:23;;;;;;;73.85;31.45;;;2.40;99.90;;;;;;5020552;28;20092;-64
2022/03/04 03:54:49;;;;;;;74.60;33.08;;;2.40;99.90;;;;;;5021839;28;20035;-64
2022/03/04 03:57:14;;;;;;;80.68;32.50;;;2.50;99.90;;;;;;5024993;28;20480;-64
2022/03/04 03:59:40;;;;;;;80.65;33.28;;;2.60;99.90;;;;;;5016763;28;20045;-64
2022/03/04 04:02:06;;;;;;;88.88;34.58;;;2.60;99.90;;;;;;5025518;28;20451;-65
2022/03/04 04:04:34;;;;;;;86.55;33.20;;;2.60;99.90;;;;;;5025523;28;20013;-65
2022/03/04 04:07:03;;;;;;;78.63;32.97;;;2.60;99.90;;;;;;5024645;28;20037;-65
2022/03/04 04:09:28;;;;;;;86.82;34.13;;;2.60;99.90;;;;;;5026751;28;20044;-65
2022/03/04 04:11:54;;;;;;;81.70;34.42;;;2.50;99.90;;;;;;5021183;28;20056;-65
2022/03/04 04:14:19;;;;;;;84.28;33.17;;;2.50;99.90;;;;;;5028206;28;20484;-65
2022/03/04 04:16:45;;;;;;;88.40;35.33;;;2.60;99.90;;;;;;5021147;28;20037;-65
2022/03/04 04:19:11;;;;;;;93.53;39.42;;;2.40;99.90;;;;;;5029700;28;20367;-63
2022/03/04 04:21:36;;;;;;;96.65;39.35;;;2.30;99.90;;;;;;5024628;28;20030;-63
2022/03/04 04:24:02;;;;;;;113.45;42.97;;;2.20;99.90;;;;;;5030280;28;20030;-63
2022/03/04 04:26:28;;;;;;;109.18;41.83;;;2.20;99.90;;;;;;5023505;28;20093;-66
2022/03/04 04:28:53;;;;;;;101.10;38.97;;;2.20;99.90;;;;;;5028986;28;20121;-64
2022/03/04 04:31:19;;;;;;;92.97;34.67;;;2.30;99.90;;;;;;5024774;28;20068;-66
2022/03/04 04:33:45;;;;;;;99.18;37.97;;;2.30;99.90;;;;;;5030454;28;20488;-67
2022/03/04 04:36:10;;;;;;;104.10;38.28;;;2.20;99.90;;;;;;5020854;28;20040;-64
2022/03/04 04:38:36;;;;;;;111.22;41.47;;;2.20;99.90;;;;;;5013111;28;20105;-66
2022/03/04 04:41:02;;;;;;;110.20;41.55;;;2.20;99.90;;;;;;5020461;28;20057;-66
2022/03/04 04:43:27;;;;;;;104.93;41.90;;;2.20;99.90;;;;;;5028447;28;20442;-66
2022/03/04 04:45:54;;;;;;;107.15;42.22;;;2.40;99.90;;;;;;5021775;28;20036;-67
2022/03/04 04:48:20;;;;;;;114.75;43.08;;;2.40;99.90;;;;;;5026034;28;20485;-68
2022/03/04 04:50:46;;;;;;;121.05;42.58;;;2.50;99.90;;;;;;5022747;28;20072;-66
2022/03/04 04:53:12;;;;;;;107.38;40.67;;;2.50;99.90;;;;;;5026472;28;20471;-67
2022/03/04 04:55:37;;;;;;;111.50;41.45;;;2.60;99.90;;;;;;5023720;28;20045;-67
2022/03/04 04:58:03;;;;;;;99.47;39.28;;;2.60;99.90;;;;;;5020289;28;20033;-68
2022/03/04 05:00:29;;;;;;;94.70;37.60;;;2.50;99.90;;;;;;5020885;28;20109;-66
2022/03/04 05:02:54;;;;;;;84.82;35.13;;;2.50;99.90;;;;;;5028318;28;20044;-66
2022/03/04 05:05:20;;;;;;;98.03;38.72;;;2.50;99.90;;;;;;5019123;28;20030;-65
2022/03/04 05:07:46;;;;;;;94.47;37.28;;;2.50;99.90;;;;;;5028580;28;20315;-66
2022/03/04 05:10:12;;;;;;;90.78;37.28;;;2.50;99.90;;;;;;5019536;28;20026;-66
2022/03/04 05:12:39;;;;;;;100.43;36.38;;;2.50;99.90;;;;;;5029136;28;20036;-65
2022/03/04 05:15:06;;;;;;;99.32;39.75;;;2.50;99.90;;;;;;5020536;28;20109;-65
2022/03/04 05:17:31;;;;;;;105.68;39.65;;;2.50;99.90;;;;;;5027002;28;20032;-64
2022/03/04 05:19:57;;;;;;;107.78;41.85;;;2.40;99.90;;;;;;5021377;28;20117;-65
2022/03/04 05:22:22;;;;;;;114.25;40.22;;;2.40;99.90;;;;;;5026640;28;20310;-65
2022/03/04 05:24:49;;;;;;;114.32;41.33;;;2.30;99.90;;;;;;5023673;28;20236;-66
2022/03/04 05:27:15;;;;;;;116.05;42.28;;;2.20;99.90;;;;;;5022579;28;20440;-63
2022/03/04 05:29:41;;;;;;;117.20;41.42;;;2.10;99.90;;;;;;5023577;28;20053;-63
2022/03/04 05:32:07;;;;;;;145.50;41.95;;;2.00;99.90;;;;;;5028882;28;20450;-63
2022/03/04 05:34:33;;;;;;;115.00;41.67;;;2.00;99.90;;;;;;5015145;28;20033;-66
2022/03/04 05:36:59;;;;;;;111.63;41.53;;;2.00;99.90;;;;;;5021916;28;20034;-65
2022/03/04 05:39:25;;;;;;;112.63;41.30;;;2.10;99.90;;;;;;5017209;28;20125;-64
2022/03/04 05:41:50;;;;;;;117.53;41.17;;;2.10;99.90;;;;;;5011701;28;20513;-65
2022/03/04 05:44:16;;;;;;;105.53;37.03;;;2.00;99.90;;;;;;5016897;28;20056;-64
2022/03/04 05:46:42;;;;;;;101.88;35.95;;;2.10;99.90;;;;;;5004987;28;20028;-65
2022/03/04 05:49:07;;;;;;;89.93;35.17;;;2.10;99.90;;;;;;5023625;28;20461;-67
2022/03/04 05:51:33;;;;;;;86.57;33.53;;;2.20;99.90;;;;;;5022068;28;20179;-65
2022/03/04 05:53:59;;;;;;;85.35;32.10;;;2.20;99.90;;;;;;5024429;28;20388;-68
2022/03/04 05:56:25;;;;;;;75.82;31.33;;;2.20;99.90;;;;;;5020692;28;20053;-68
2022/03/04 05:58:50;;;;;;;74.38;31.05;;;2.20;99.90;;;;;;5016812;28;20399;-68
2022/03/04 06:01:16;;;;;;;76.47;31.73;;;2.20;99.90;;;;;;5013638;28;20117;-67
2022/03/04 06:03:43;;;;;;;83.70;30.98;;;2.30;99.90;;;;;;5016220;28;20121;-65
2022/03/04 06:06:13;;;;;;;69.25;29.13;;;2.30;99.90;;;;;;5013820;28;20028;-65
2022/03/04 06:08:40;;;;;;;63.90;27.42;;;2.20;99.90;;;;;;5023769;28;20435;-68
2022/03/04 06:11:09;;;;;;;68.35;27.15;;;2.30;99.90;;;;;;5023573;28;20756;-66
2022/03/04 06:13:36;;;;;;;64.35;26.40;;;2.30;99.90;;;;;;5008915;28;20480;-67
2022/03/04 06:16:03;;;;;;;57.15;25.58;;;2.30;99.90;;;;;;5008608;28;20105;-67
2022/03/04 06:18:29;;;;;;;67.20;25.33;;;2.30;99.90;;;;;;5008801;28;20026;-65
2022/03/04 06:20:54;;;;;;;57.58;25.52;;;2.30;99.90;;;;;;5008994;28;20034;-64
2022/03/04 06:23:21;;;;;;;53.35;24.08;;;2.20;99.90;;;;;;5010627;28;20037;-65
2022/03/04 06:25:47;;;;;;;54.53;23.35;;;2.20;99.90;;;;;;5009298;28;20392;-65
2022/03/04 06:28:12;;;;;;;48.33;22.95;;;2.20;99.90;;;;;;5010651;28;20030;-65
2022/03/04 06:30:38;;;;;;;56.78;23.15;;;2.20;99.90;;;;;;5008728;28;20026;-64
2022/03/04 06:33:53;;;;;;;52.75;22.35;;;2.10;99.90;;;;;;5010094;28;20109;-65
2022/03/04 06:35:54;;;;;;;49.67;21.58;;;2.10;99.90;;;;;;5008756;28;20045;-65
2022/03/04 06:38:20;;;;;;;53.13;22.73;;;2.00;99.90;;;;;;5008832;28;20049;-65
2022/03/04 06:40:47;;;;;;;47.65;20.65;;;2.10;99.90;;;;;;5009210;28;20030;-65
2022/03/04 06:43:14;;;;;;;46.47;20.80;;;2.00;99.90;;;;;;5008665;28;20041;-65
2022/03/04 06:45:44;;;;;;;41.17;18.67;;;2.10;99.90;;;;;;5009038;28;20041;-66
2022/03/04 06:48:11;;;;;;;40.67;17.42;;;2.10;99.90;;;;;;5010196;28;20472;-66
2022/03/04 06:50:37;;;;;;;41.97;18.02;;;2.00;99.90;;;;;;5011132;28;20030;-68
2022/03/04 06:53:04;;;;;;;40.95;16.80;;;2.10;99.90;;;;;;5010459;28;20456;-66
2022/03/04 06:55:30;;;;;;;38.80;17.98;;;2.10;99.90;;;;;;5008976;28;20046;-66
2022/03/04 06:57:56;;;;;;;40.72;18.08;;;2.10;99.90;;;;;;5008767;28;20030;-68
2022/03/04 07:00:22;;;;;;;41.05;18.42;;;2.20;99.90;;;;;;5008753;28;20112;-67
2022/03/04 07:02:48;;;;;;;37.05;16.48;;;2.10;99.90;;;;;;4993467;28;20036;-64
2022/03/04 07:05:14;;;;;;;37.38;18.10;;;2.00;99.90;;;;;;5001098;28;20025;-66
2022/03/04 07:07:41;;;;;;;38.50;15.90;;;2.00;99.90;;;;;;4989555;28;20657;-66
2022/03/04 07:10:07;;;;;;;34.15;15.48;;;1.90;99.90;;;;;;4987905;28;20040;-66
2022/03/04 07:12:32;;;;;;;38.50;16.88;;;1.80;99.90;;;;;;4991130;28;20542;-65
2022/03/04 07:14:58;;;;;;;34.85;15.57;;;1.90;99.90;;;;;;4990695;28;20038;-67
2022/03/04 07:17:24;;;;;;;36.53;16.85;;;1.80;99.90;;;;;;4991273;28;20037;-65
2022/03/04 07:19:49;;;;;;;35.97;15.93;;;1.60;99.90;;;;;;4991477;28;20033;-48
2022/03/04 07:22:15;;;;;;;36.53;16.85;;;1.60;99.90;;;;;;4994895;28;20035;-49
2022/03/04 07:24:41;;;;;;;33.65;15.90;;;1.50;99.90;;;;;;4992447;28;20061;-51
2022/03/04 07:27:07;;;;;;;34.40;16.20;;;1.40;99.90;;;;;;4991240;28;20025;-52
2022/03/04 07:29:33;;;;;;;32.53;15.75;;;1.30;99.90;;;;;;4991717;28;20029;-53
2022/03/04 07:31:58;;;;;;;38.13;16.80;;;1.30;99.90;;;;;;4990216;28;20045;-53
2022/03/04 07:34:24;;;;;;;37.08;15.65;;;1.30;99.90;;;;;;4990373;28;20437;-63
2022/03/04 07:36:51;;;;;;;33.60;15.05;;;1.50;99.90;;;;;;4990215;28;20110;-63
2022/03/04 07:39:17;;;;;;;38.05;15.88;;;1.60;99.90;;;;;;4992078;28;20486;-63
2022/03/04 07:41:43;;;;;;;39.20;16.40;;;1.70;99.90;;;;;;4989701;28;20069;-63
2022/03/04 07:44:12;;;;;;;45.17;18.95;;;1.70;99.90;;;;;;4990172;28;20446;-63
2022/03/04 07:46:38;;;;;;;47.88;19.63;;;1.40;99.90;;;;;;4991226;28;20033;-63
2022/03/04 07:49:04;;;;;;;39.22;17.08;;;1.30;99.90;;;;;;4990941;28;20025;-62
2022/03/04 07:51:30;;;;;;;42.53;18.10;;;1.40;99.90;;;;;;4989327;28;20108;-64
2022/03/04 07:53:56;;;;;;;41.83;18.05;;;1.40;99.90;;;;;;4991004;28;20038;-64
2022/03/04 07:56:22;;;;;;;51.42;21.38;;;1.40;99.90;;;;;;4991175;28;20030;-60
2022/03/04 07:58:48;;;;;;;55.25;24.10;;;1.30;99.90;;;;;;4991117;28;20025;-61
2022/03/04 08:01:13;;;;;;;55.92;23.13;;;1.30;99.90;;;;;;4987167;28;20037;-59
2022/03/04 08:03:39;;;;;;;48.13;21.38;;;1.40;99.90;;;;;;4988546;28;20056;-62
2022/03/04 08:06:05;;;;;;;50.13;21.13;;;1.50;99.90;;;;;;4998090;28;20030;-61
2022/03/04 08:08:30;;;;;;;57.67;23.75;;;1.70;99.90;;;;;;5015756;28;20022;-63
2022/03/04 08:10:56;;;;;;;63.72;26.75;;;1.90;99.90;;;;;;5017917;28;20111;-67
2022/03/04 08:13:22;;;;;;;63.88;26.25;;;1.80;99.90;;;;;;5024327;28;20030;-60
2022/03/04 08:15:47;;;;;;;59.15;25.63;;;1.80;99.90;;;;;;5017199;28;20116;-63
2022/03/04 08:18:13;;;;;;;65.75;28.17;;;1.90;99.90;;;;;;5022351;28;20075;-65
2022/03/04 08:20:39;;;;;;;63.42;27.15;;;1.90;99.90;;;;;;5023740;28;20030;-65
2022/03/04 08:23:06;;;;;;;57.10;24.77;;;1.90;99.90;;;;;;5020804;28;20065;-64
2022/03/04 08:25:32;;;;;;;63.40;28.10;;;1.80;99.90;;;;;;5012077;28;20029;-63
2022/03/04 08:27:57;;;;;;;63.40;26.52;;;1.90;99.90;;;;;;5015782;28;20030;-66
2022/03/04 08:30:23;;;;;;;55.03;23.60;;;1.80;99.90;;;;;;5020252;28;20021;-67
2022/03/04 08:32:49;;;;;;;46.40;19.40;;;1.80;99.90;;;;;;5012374;28;20099;-66
2022/03/04 08:35:15;;;;;;;48.65;22.55;;;2.00;99.90;;;;;;5007343;28;20038;-65
2022/03/04 08:37:41;;;;;;;54.17;26.00;;;1.90;99.90;;;;;;5011556;28;20088;-66
2022/03/04 08:40:08;;;;;;;49.38;22.58;;;1.90;99.90;;;;;;5013382;28;20030;-65
2022/03/04 08:42:35;;;;;;;42.42;17.88;;;2.00;99.90;;;;;;5007498;28;20045;-63
2022/03/04 08:45:01;;;;;;;39.90;17.65;;;2.00;99.90;;;;;;5009977;28;20117;-66
2022/03/04 08:47:26;;;;;;;44.10;19.55;;;2.10;99.90;;;;;;5018754;28;20148;-64
2022/03/04 08:49:52;;;;;;;41.67;18.25;;;2.10;99.90;;;;;;5016891;28;20036;-66
2022/03/04 08:52:19;;;;;;;34.42;15.93;;;2.10;99.90;;;;;;5028339;28;20033;-63
2022/03/04 08:54:44;;;;;;;35.88;17.65;;;2.00;99.90;;;;;;5023195;28;20052;-63
2022/03/04 08:57:10;;;;;;;38.47;18.30;;;2.00;99.90;;;;;;5028347;28;20030;-65
2022/03/04 08:59:36;;;;;;;43.20;19.67;;;2.00;99.90;;;;;;5011453;28;20499;-67
2022/03/04 09:02:05;;;;;;;42.42;19.40;;;2.00;99.90;;;;;;5019735;28;20018;-65
2022/03/04 09:04:31;;;;;;;39.90;18.58;;;2.00;99.90;;;;;;5009593;28;20026;-64
2022/03/04 09:06:57;;;;;;;39.38;18.33;;;2.10;99.90;;;;;;5020425;28;20483;-66
2022/03/04 09:09:22;;;;;;;47.95;23.00;;;2.20;99.90;;;;;;5023132;28;20352;-66
2022/03/04 09:11:48;;;;;;;50.05;23.70;;;2.20;99.90;;;;;;5014800;28;20584;-65
2022/03/04 09:14:15;;;;;;;52.95;23.85;;;2.20;99.90;;;;;;5019650;28;20022;-64
2022/03/04 09:16:41;;;;;;;48.50;23.10;;;2.20;99.90;;;;;;5010798;28;20033;-64
2022/03/04 09:19:07;;;;;;;53.58;24.23;;;2.20;99.90;;;;;;5023150;28;20037;-65
2022/03/04 09:21:33;;;;;;;49.40;24.42;;;2.20;99.90;;;;;;5019479;28;20026;-65
2022/03/04 09:23:59;;;;;;;51.78;22.88;;;2.30;99.90;;;;;;5014029;28;20030;-64
2022/03/04 09:26:26;;;;;;;45.17;21.98;;;2.40;99.90;;;;;;5009849;28;20017;-64
2022/03/04 09:28:52;;;;;;;45.17;21.10;;;2.50;99.90;;;;;;5012065;28;20447;-66
2022/03/04 09:31:18;;;;;;;45.72;19.88;;;2.50;99.90;;;;;;5023206;28;20305;-67
2022/03/04 09:33:44;;;;;;;41.08;17.42;;;2.60;99.90;;;;;;5023499;28;20033;-65
2022/03/04 09:36:12;;;;;;;36.35;16.85;;;2.50;99.90;;;;;;5022204;28;20065;-66
2022/03/04 09:38:38;;;;;;;40.45;17.35;;;2.60;99.90;;;;;;5025914;28;20030;-69
2022/03/04 09:41:04;;;;;;;41.65;18.70;;;2.60;99.90;;;;;;5021558;28;20025;-66
2022/03/04 09:43:30;;;;;;;48.42;21.17;;;2.70;99.90;;;;;;5021940;28;20034;-63
2022/03/04 09:45:56;;;;;;;43.97;21.70;;;2.90;99.90;;;;;;5007855;28;20037;-62
2022/03/04 09:48:24;;;;;;;60.55;27.45;;;2.90;99.90;;;;;;5020430;28;20533;-62
2022/03/04 09:50:50;;;;;;;64.70;29.15;;;2.80;99.90;;;;;;5020396;28;20037;-64
2022/03/04 09:53:16;;;;;;;67.70;28.05;;;2.70;99.90;;;;;;5018977;28;20099;-66
2022/03/04 09:55:43;;;;;;;56.53;27.60;;;2.70;99.90;;;;;;5021392;28;20026;-64
2022/03/04 09:58:14;;;;;;;57.20;24.92;;;2.70;99.90;;;;;;5006525;28;20053;-65
2022/03/04 10:00:42;;;;;;;35.40;16.27;;;2.80;99.90;;;;;;5016611;28;20069;-65
2022/03/04 10:03:21;;;;;;;30.27;15.77;;;2.80;99.90;;;;;;5023714;28;20091;-61
2022/03/04 10:05:54;;;;;;;32.70;14.48;;;2.80;99.90;;;;;;5022988;28;20565;-57
2022/03/04 10:08:21;;;;;;;39.22;17.85;;;2.80;99.90;;;;;;5011432;28;20033;-58
2022/03/04 10:10:55;;;;;;;34.90;14.48;;;2.80;99.90;;;;;;5010484;28;20030;-59
2022/03/04 10:13:39;;;;;;;35.10;18.67;;;2.90;99.90;;;;;;5010680;28;20037;-59
2022/03/04 10:16:05;;;;;;;38.03;18.05;;;3.20;99.90;;;;;;5010224;28;20096;-63
2022/03/04 10:18:31;;;;;;;42.47;21.27;;;3.20;99.90;;;;;;4999700;28;20022;-62
2022/03/04 10:20:56;;;;;;;33.03;17.17;;;3.20;99.90;;;;;;5007699;28;20542;-61
2022/03/04 10:23:25;;;;;;;37.08;17.35;;;3.10;99.90;;;;;;4995530;28;20030;-65
2022/03/04 10:25:59;;;;;;;39.97;19.17;;;3.10;99.90;;;;;;5011297;28;20061;-62
2022/03/04 10:28:27;;;;;;;38.78;19.30;;;3.20;99.90;;;;;;5007750;28;20074;-64
2022/03/04 10:30:55;;;;;;;42.53;21.08;;;3.10;99.90;;;;;;5020906;28;20037;-61
2022/03/04 10:33:23;;;;;;;50.55;23.98;;;3.10;99.90;;;;;;5023621;28;20026;-63
2022/03/04 10:36:10;;;;;;;55.10;25.42;;;3.10;99.90;;;;;;5020911;28;20087;-65
2022/03/04 10:38:37;;;;;;;44.08;21.40;;;3.20;99.90;;;;;;5010775;28;20051;-64
2022/03/04 10:41:35;;;;;;;51.08;23.75;;;3.30;99.90;;;;;;5017821;28;20037;-62
2022/03/04 10:44:08;;;;;;;51.38;24.75;;;3.40;99.90;;;;;;5021777;28;20045;-61
2022/03/04 10:46:53;;;;;;;39.95;19.77;;;3.60;99.90;;;;;;5025740;28;20092;-60
2022/03/04 10:49:24;;;;;;;29.58;15.98;;;3.80;99.90;;;;;;5019396;28;20376;-64
2022/03/04 10:51:50;;;;;;;37.30;17.10;;;4.00;99.90;;;;;;5009765;28;20530;-64
2022/03/04 10:54:18;;;;;;;39.55;17.67;;;4.00;99.90;;;;;;5016310;28;20069;-62
2022/03/04 10:56:51;;;;;;;44.22;22.17;;;4.00;99.90;;;;;;5018422;28;20034;-60
2022/03/04 10:59:18;;;;;;;54.00;28.35;;;3.90;99.90;;;;;;5015544;28;20033;-60
2022/03/04 11:01:48;;;;;;;61.20;30.45;;;3.90;99.90;;;;;;5004288;28;20036;-65
2022/03/04 11:04:16;;;;;;;54.33;27.70;;;3.90;99.90;;;;;;5009481;28;20133;-62
2022/03/04 11:06:45;;;;;;;60.05;29.63;;;4.10;99.90;;;;;;5007196;28;20072;-65
2022/03/04 11:09:16;;;;;;;54.40;27.73;;;4.00;99.90;;;;;;5009184;28;20022;-63
2022/03/04 11:11:43;;;;;;;59.03;29.92;;;4.00;99.90;;;;;;5016241;28;20370;-63
2022/03/04 11:14:13;;;;;;;54.58;29.48;;;4.10;99.90;;;;;;5010243;28;20044;-65
2022/03/04 11:16:39;;;;;;;56.17;27.52;;;4.10;99.90;;;;;;5008999;28;20052;-63
2022/03/04 11:19:08;;;;;;;54.55;28.00;;;4.20;99.90;;;;;;5003302;28;20432;-62
2022/03/04 11:21:34;;;;;;;57.30;28.63;;;4.20;99.90;;;;;;5002317;28;20038;-63
2022/03/04 11:24:00;;;;;;;52.85;26.40;;;4.00;99.90;;;;;;5005413;28;20434;-61
2022/03/04 11:26:30;;;;;;;53.65;27.23;;;4.10;99.90;;;;;;5008749;28;20440;-63
2022/03/04 11:28:56;;;;;;;45.80;24.67;;;4.20;99.90;;;;;;5015604;28;20034;-62
2022/03/04 11:31:25;;;;;;;45.78;24.40;;;4.00;99.90;;;;;;5015950;28;20026;-64
2022/03/04 11:33:56;;;;;;;43.30;22.42;;;4.20;99.90;;;;;;5021250;28;20476;-62
2022/03/04 11:36:22;;;;;;;45.65;24.10;;;4.30;99.90;;;;;;5016539;28;20072;-64
2022/03/04 11:38:48;;;;;;;50.42;23.77;;;4.50;99.90;;;;;;5016136;28;20330;-64
2022/03/04 11:41:18;;;;;;;49.75;25.80;;;4.70;99.90;;;;;;5019532;28;20392;-65
2022/03/04 11:43:52;;;;;;;46.33;22.30;;;4.70;99.90;;;;;;5011537;28;20400;-63
2022/03/04 11:46:22;;;;;;;36.03;18.40;;;4.60;99.90;;;;;;5016233;28;20379;-66
2022/03/04 11:49:26;;;;;;;38.60;17.77;;;4.50;99.90;;;;;;5017132;28;20026;-66
2022/03/04 11:52:20;;;;;;;34.70;19.65;;;4.30;99.90;;;;;;5017070;28;20419;-66
2022/03/04 11:55:07;;;;;;;33.67;18.08;;;4.30;99.90;;;;;;4998747;28;20038;-64
2022/03/04 11:57:36;;;;;;;39.25;19.05;;;4.30;99.90;;;;;;5005419;28;20022;-66
2022/03/04 12:00:14;;;;;;;31.85;16.02;;;4.80;99.90;;;;;;4989681;28;20095;-64
2022/03/04 12:02:55;;;;;;;26.13;13.80;;;5.30;99.90;;;;;;4988635;28;20034;-62
2022/03/04 12:05:31;;;;;;;25.33;13.38;;;5.90;99.90;;;;;;4998231;28;20021;-65
2022/03/04 12:07:56;;;;;;;29.70;12.52;;;6.20;99.90;;;;;;4989831;28;20135;-64
2022/03/04 12:10:24;;;;;;;23.60;10.32;;;7.00;99.90;;;;;;4990491;28;20759;-62
2022/03/04 12:13:02;;;;;;;22.50;10.30;;;8.10;99.90;;;;;;4989724;28;20030;-63
2022/03/04 12:15:44;;;;;;;25.85;9.65;;;9.10;99.90;;;;;;4988768;28;20452;-63
2022/03/04 12:18:25;;;;;;;15.40;8.90;;;10.40;99.90;;;;;;4992315;28;20038;-63
2022/03/04 12:20:56;;;;;;;19.00;8.50;;;10.50;99.90;;;;;;4992461;28;20050;-64
2022/03/04 12:23:41;;;;;;;17.13;8.07;;;10.80;99.90;;;;;;4997562;28;20033;-65
2022/03/04 12:26:08;;;;;;;16.20;8.18;;;11.40;99.90;;;;;;4995185;28;20038;-65
2022/03/04 12:28:35;;;;;;;17.42;8.38;;;12.00;99.90;;;;;;4993779;28;20029;-64
2022/03/04 12:31:01;;;;;;;17.25;7.95;;;11.30;99.90;;;;;;4993135;28;20091;-64
2022/03/04 12:33:31;;;;;;;15.80;8.45;;;11.30;99.90;;;;;;4992975;28;20037;-64